createdAt,value
2022-11-13T00:01:15.514Z,100037.34
2022-11-13T00:03:43.022Z,100028.56
2022-11-13T00:06:12.637Z,100029.53
2022-11-13T00:08:39.876Z,100029.72
2022-11-13T00:11:18.692Z,100025.34
2022-11-13T00:13:46.365Z,100020.19
2022-11-13T00:16:18.228Z,100013.59
2022-11-13T00:18:45.917Z,100021.13
2022-11-13T00:21:22.133Z,100018.91
2022-11-13T00:23:50.222Z,100020.59
2022-11-13T00:26:22.368Z,100025.50
2022-11-13T00:28:55.168Z,100019.56
2022-11-13T00:31:22.489Z,100020.91
2022-11-13T00:34:19.998Z,100025.53
2022-11-13T00:36:37.749Z,100022.88
2022-11-13T00:39:04.925Z,100001.31
2022-11-13T00:41:31.841Z,100022.28
2022-11-13T00:43:58.952Z,100028.59
2022-11-13T00:46:26.107Z,100023.34
2022-11-13T00:48:53.146Z,100009.44
2022-11-13T00:51:20.200Z,100017.94
2022-11-13T00:53:47.548Z,100020.22
2022-11-13T00:56:14.605Z,100014.72
2022-11-13T00:58:41.749Z,100015.09
2022-11-13T01:01:12.678Z,100001.84
2022-11-13T01:03:40.310Z,99999.88
2022-11-13T01:06:16.890Z,100002.44
2022-11-13T01:08:44.057Z,100007.53
2022-11-13T01:11:14.754Z,99999.25
2022-11-13T01:13:43.791Z,100009.44
2022-11-13T01:16:12.960Z,100004.66
2022-11-13T01:18:41.775Z,100000.50
2022-11-13T01:21:20.021Z,99998.22
2022-11-13T01:23:47.549Z,100008.84
2022-11-13T01:26:42.002Z,100005.44
2022-11-13T01:29:10.908Z,99995.94
2022-11-13T01:31:37.854Z,99996.72
2022-11-13T01:34:04.803Z,99989.88
2022-11-13T01:36:31.944Z,99987.78
2022-11-13T01:38:58.951Z,99980.59
2022-11-13T01:41:27.955Z,99971.72
2022-11-13T01:43:55.874Z,99978.66
2022-11-13T01:46:55.641Z,99974.72
2022-11-13T01:49:38.406Z,99959.50
2022-11-13T01:52:10.164Z,99972.41
2022-11-13T01:54:41.459Z,99963.47
2022-11-13T01:57:09.073Z,99965.50
2022-11-13T01:59:44.367Z,99964.41
2022-11-13T02:02:11.310Z,99951.25
2022-11-13T02:04:38.589Z,99960.00
2022-11-13T02:07:35.831Z,99960.88
2022-11-13T02:10:17.959Z,99939.88
2022-11-13T02:13:05.865Z,99931.91
2022-11-13T02:16:01.459Z,99946.22
2022-11-13T02:18:49.355Z,99931.56
2022-11-13T02:21:45.759Z,99932.00
2022-11-13T02:24:21.522Z,99927.91
2022-11-13T02:26:51.113Z,99934.69
2022-11-13T02:29:18.086Z,99936.25
2022-11-13T02:31:45.068Z,99930.34
2022-11-13T02:34:11.991Z,99929.38
2022-11-13T02:36:38.940Z,99937.03
2022-11-13T02:39:09.240Z,99934.53
2022-11-13T02:41:36.311Z,99933.50
2022-11-13T02:44:03.248Z,99936.47
2022-11-13T02:46:30.099Z,99939.88
2022-11-13T02:48:57.182Z,99927.06
2022-11-13T02:51:24.108Z,99940.63
2022-11-13T02:53:51.710Z,99942.91
2022-11-13T02:56:18.801Z,99940.22
2022-11-13T02:58:45.907Z,99938.28
2022-11-13T03:01:12.879Z,99941.22
2022-11-13T03:06:26.868Z,99931.75
2022-11-13T03:08:53.928Z,99931.09
2022-11-13T03:11:20.844Z,99932.34
2022-11-13T03:13:47.745Z,99923.91
2022-11-13T03:16:16.572Z,99931.81
2022-11-13T03:18:43.806Z,99926.19
2022-11-13T03:21:13.584Z,99923.38
2022-11-13T03:23:41.949Z,99915.22
2022-11-13T03:26:12.252Z,99921.69
2022-11-13T03:28:39.202Z,99930.56
2022-11-13T03:31:06.306Z,99932.34
2022-11-13T03:33:33.839Z,99935.00
2022-11-13T03:36:00.774Z,99933.50
2022-11-13T03:38:28.129Z,99933.78
2022-11-13T03:40:55.712Z,99943.00
2022-11-13T03:43:23.778Z,99941.31
2022-11-13T03:45:50.681Z,99951.22
2022-11-13T03:48:18.350Z,99948.81
2022-11-13T03:50:48.081Z,99961.53
2022-11-13T03:53:15.882Z,99953.63
2022-11-13T03:55:43.714Z,99954.22
2022-11-13T03:58:10.710Z,99955.91
2022-11-13T04:00:39.417Z,99954.78
2022-11-13T04:03:06.387Z,99956.50
2022-11-13T04:05:33.399Z,99953.81
2022-11-13T04:08:00.306Z,99946.59
2022-11-13T04:10:27.340Z,99946.31
2022-11-13T04:12:54.298Z,99946.31
2022-11-13T04:15:21.836Z,99943.34
2022-11-13T04:17:49.468Z,99941.22
2022-11-13T04:20:17.302Z,99940.94
2022-11-13T04:22:44.175Z,99936.91
2022-11-13T04:25:11.079Z,99938.84
2022-11-13T04:27:38.117Z,99936.00
2022-11-13T04:30:06.078Z,99937.66
2022-11-13T04:32:33.530Z,99936.16
2022-11-13T04:35:00.513Z,99936.47
2022-11-13T04:37:27.638Z,99944.97
2022-11-13T04:39:54.537Z,99936.00
2022-11-13T04:42:39.821Z,99940.00
2022-11-13T04:45:07.079Z,99936.06
2022-11-13T04:47:34.161Z,99945.69
2022-11-13T04:50:01.101Z,99950.78
2022-11-13T04:52:28.840Z,99950.50
2022-11-13T04:54:56.138Z,99951.22
2022-11-13T04:57:23.566Z,99943.16
2022-11-13T05:02:31.317Z,99937.47
2022-11-13T05:05:04.385Z,99945.91
2022-11-13T05:07:32.144Z,99950.44
2022-11-13T05:09:59.184Z,99945.31
2022-11-13T05:12:26.093Z,99941.94
2022-11-13T05:14:53.008Z,99948.72
2022-11-13T05:17:19.886Z,99946.09
2022-11-13T05:19:46.771Z,99940.00
2022-11-13T05:22:13.705Z,99942.34
2022-11-13T05:24:40.702Z,99931.44
2022-11-13T05:27:09.543Z,99940.78
2022-11-13T05:29:39.704Z,99937.78
2022-11-13T05:32:06.593Z,99933.50
2022-11-13T05:34:33.515Z,99940.97
2022-11-13T05:37:00.386Z,99939.16
2022-11-13T05:39:27.305Z,99929.41
2022-11-13T05:41:54.174Z,99916.44
2022-11-13T05:44:21.141Z,99923.91
2022-11-13T05:46:48.078Z,99927.56
2022-11-13T05:49:14.987Z,99932.47
2022-11-13T05:51:42.049Z,99928.75
2022-11-13T05:54:09.086Z,99916.16
2022-11-13T05:56:36.966Z,99921.91
2022-11-13T05:59:04.916Z,99923.81
2022-11-13T06:01:38.116Z,99924.09
2022-11-13T06:04:06.890Z,99919.72
2022-11-13T06:06:34.835Z,99921.59
2022-11-13T06:09:04.272Z,99923.81
2022-11-13T06:11:31.903Z,99923.31
2022-11-13T06:13:59.665Z,99928.28
2022-11-13T06:16:30.327Z,99932.56
2022-11-13T06:18:59.070Z,99943.81
2022-11-13T06:21:28.642Z,99938.69
2022-11-13T06:23:57.008Z,99914.94
2022-11-13T06:26:30.313Z,99935.81
2022-11-13T06:28:58.444Z,99931.91
2022-11-13T06:31:29.712Z,99922.91
2022-11-13T06:33:59.352Z,99937.69
2022-11-13T06:36:29.502Z,99927.03
2022-11-13T06:38:56.944Z,99936.09
2022-11-13T06:41:26.713Z,99935.56
2022-11-13T06:43:54.401Z,99920.47
2022-11-13T06:46:25.492Z,99928.75
2022-11-13T06:48:53.097Z,99934.91
2022-11-13T06:51:25.766Z,99925.22
2022-11-13T06:53:53.411Z,99915.94
2022-11-13T06:56:20.375Z,99914.81
2022-11-13T06:58:47.312Z,99923.44
2022-11-13T07:01:19.958Z,99909.31
2022-11-13T07:03:47.016Z,99909.75
2022-11-13T07:06:16.522Z,99919.22
2022-11-13T07:08:43.919Z,99922.47
2022-11-13T07:11:14.860Z,99913.34
2022-11-13T07:13:42.596Z,99914.34
2022-11-13T07:16:16.839Z,99911.13
2022-11-13T07:18:49.364Z,99912.69
2022-11-13T07:21:16.449Z,99911.81
2022-11-13T07:23:43.794Z,99908.50
2022-11-13T07:26:14.305Z,99911.81
2022-11-13T07:28:41.460Z,99909.03
2022-11-13T07:31:09.685Z,99911.16
2022-11-13T07:33:36.808Z,99908.91
2022-11-13T07:36:03.879Z,99910.19
2022-11-13T07:38:31.669Z,99911.50
2022-11-13T07:40:59.376Z,99912.75
2022-11-13T07:43:26.727Z,99909.03
2022-11-13T07:45:57.159Z,99912.16
2022-11-13T07:48:24.677Z,99907.19
2022-11-13T07:50:51.867Z,99903.22
2022-11-13T07:53:20.380Z,99913.47
2022-11-13T07:55:48.222Z,99910.91
2022-11-13T07:58:15.405Z,99913.41
2022-11-13T08:00:42.493Z,99905.66
2022-11-13T08:03:12.987Z,99911.81
2022-11-13T08:05:40.522Z,99908.88
2022-11-13T08:08:08.573Z,99915.41
2022-11-13T08:10:36.628Z,99915.97
2022-11-13T08:13:06.640Z,99919.78
2022-11-13T08:15:34.688Z,99917.00
2022-11-13T08:18:03.563Z,99916.66
2022-11-13T08:20:31.710Z,99916.88
2022-11-13T08:23:00.962Z,99908.47
2022-11-13T08:25:29.238Z,99908.81
2022-11-13T08:27:57.374Z,99903.38
2022-11-13T08:30:26.740Z,99913.81
2022-11-13T08:32:54.538Z,99917.41
2022-11-13T08:35:25.366Z,99916.59
2022-11-13T08:37:56.291Z,99911.00
2022-11-13T08:40:23.195Z,99904.66
2022-11-13T08:42:50.292Z,99904.38
2022-11-13T08:45:17.336Z,99911.84
2022-11-13T08:47:44.285Z,99913.28
2022-11-13T08:50:11.201Z,99915.66
2022-11-13T08:52:38.122Z,99914.66
2022-11-13T08:55:05.808Z,99923.13
2022-11-13T08:57:32.733Z,99915.16
2022-11-13T08:59:59.690Z,99922.00
2022-11-13T09:02:27.251Z,99930.28
2022-11-13T09:04:54.148Z,99927.16
2022-11-13T09:07:26.042Z,99921.81
2022-11-13T09:09:54.169Z,99911.75
2022-11-13T09:12:21.751Z,99933.97
2022-11-13T09:14:48.706Z,99933.97
2022-11-13T09:17:16.019Z,99925.94
2022-11-13T09:19:42.940Z,99920.56
2022-11-13T09:22:10.912Z,99923.97
2022-11-13T09:24:38.324Z,99918.41
2022-11-13T09:27:05.277Z,99916.56
2022-11-13T09:29:32.214Z,99920.25
2022-11-13T09:31:59.320Z,99913.50
2022-11-13T09:34:28.202Z,99919.41
2022-11-13T09:36:55.211Z,99913.59
2022-11-13T09:39:22.299Z,99917.16
2022-11-13T09:41:52.405Z,99924.41
2022-11-13T09:44:41.813Z,99916.53
2022-11-13T09:47:29.510Z,99918.34
2022-11-13T09:50:27.605Z,99926.69
2022-11-13T09:52:55.554Z,99929.78
2022-11-13T09:55:32.923Z,99923.84
2022-11-13T09:58:32.000Z,99902.63
2022-11-13T10:01:01.497Z,99912.84
2022-11-13T10:04:01.453Z,99900.97
2022-11-13T10:06:40.767Z,99907.41
2022-11-13T10:09:25.744Z,99896.31
2022-11-13T10:11:57.105Z,99893.81
2022-11-13T10:14:27.268Z,99902.81
2022-11-13T10:17:15.565Z,99898.63
2022-11-13T10:20:05.810Z,99896.84
2022-11-13T10:22:41.044Z,99888.69
2022-11-13T10:25:16.853Z,99886.88
2022-11-13T10:27:49.395Z,99898.38
2022-11-13T10:30:18.864Z,99900.63
2022-11-13T10:32:47.059Z,99892.78
2022-11-13T10:35:44.795Z,99891.94
2022-11-13T10:38:44.684Z,99884.38
2022-11-13T10:41:17.651Z,99897.34
2022-11-13T10:43:50.961Z,99888.53
2022-11-13T10:46:24.729Z,99885.16
2022-11-13T10:48:52.095Z,99889.25
2022-11-13T10:51:31.421Z,99895.97
2022-11-13T10:54:00.037Z,99877.50
2022-11-13T10:56:32.097Z,99891.59
2022-11-13T10:59:19.266Z,99872.53
2022-11-13T11:01:48.076Z,99890.50
2022-11-13T11:04:20.710Z,99888.75
2022-11-13T11:07:18.331Z,99890.97
2022-11-13T11:09:38.365Z,99881.81
2022-11-13T11:12:17.512Z,99876.38
2022-11-13T11:14:58.699Z,99881.88
2022-11-13T11:17:34.468Z,99893.00
2022-11-13T11:20:20.462Z,99882.53
2022-11-13T11:22:53.107Z,99867.91
2022-11-13T11:25:53.923Z,99874.00
2022-11-13T11:28:29.290Z,99869.47
2022-11-13T11:31:06.200Z,99864.94
2022-11-13T11:33:52.889Z,99854.16
2022-11-13T11:36:35.524Z,99850.69
2022-11-13T11:39:08.527Z,99852.00
2022-11-13T11:41:50.100Z,99846.84
2022-11-13T11:44:37.932Z,99846.09
2022-11-13T11:47:11.715Z,99836.16
2022-11-13T11:49:38.715Z,99842.06
2022-11-13T11:52:11.386Z,99828.13
2022-11-13T11:54:58.386Z,99824.03
2022-11-13T11:57:45.917Z,99829.06
2022-11-13T12:00:38.749Z,99828.22
2022-11-13T12:03:32.166Z,99825.00
2022-11-13T12:06:20.924Z,99815.22
2022-11-13T12:09:24.743Z,99807.41
2022-11-13T12:12:11.544Z,99804.69
2022-11-13T12:15:21.732Z,99800.34
2022-11-13T12:18:15.653Z,99795.59
2022-11-13T12:21:17.666Z,99773.16
2022-11-13T12:23:44.486Z,99800.31
2022-11-13T12:26:23.323Z,99791.75
2022-11-13T12:28:59.531Z,99784.66
2022-11-13T12:31:56.335Z,99775.88
2022-11-13T12:34:31.924Z,99763.63
2022-11-13T12:36:59.900Z,99748.78
2022-11-13T12:39:54.830Z,99771.81
2022-11-13T12:42:48.879Z,99765.72
2022-11-13T12:45:22.072Z,99753.66
2022-11-13T12:47:50.375Z,99761.63
2022-11-13T12:50:32.430Z,99768.09
2022-11-13T12:53:04.967Z,99756.50
2022-11-13T12:55:35.372Z,99752.63
2022-11-13T12:58:22.263Z,99754.09
2022-11-13T13:01:15.255Z,99731.88
2022-11-13T13:03:42.394Z,99753.88
2022-11-13T13:06:41.926Z,99747.03
2022-11-13T13:09:17.555Z,99745.06
2022-11-13T13:11:52.661Z,99736.84
2022-11-13T13:14:37.496Z,99738.56
2022-11-13T13:17:16.351Z,99741.63
2022-11-13T13:19:43.351Z,99748.38
2022-11-13T13:22:12.430Z,99739.25
2022-11-13T13:24:40.155Z,99733.53
2022-11-13T13:27:23.176Z,99732.34
2022-11-13T13:29:50.073Z,99729.50
2022-11-13T13:32:31.763Z,99728.66
2022-11-13T13:35:15.656Z,99730.16
2022-11-13T13:37:48.248Z,99736.75
2022-11-13T13:40:33.480Z,99729.16
2022-11-13T13:43:02.911Z,99728.16
2022-11-13T13:45:57.848Z,99726.31
2022-11-13T13:48:27.914Z,99724.44
2022-11-13T13:50:56.623Z,99723.75
2022-11-13T13:53:27.808Z,99682.06
2022-11-13T13:55:59.424Z,99697.13
2022-11-13T13:58:33.488Z,99696.41
2022-11-13T14:01:20.178Z,99690.50
2022-11-13T14:03:47.494Z,99696.41
2022-11-13T14:06:23.179Z,99701.16
2022-11-13T14:08:50.234Z,99698.13
2022-11-13T14:11:35.159Z,99686.31
2022-11-13T14:14:17.146Z,99701.81
2022-11-13T14:16:51.597Z,99699.44
2022-11-13T14:19:20.056Z,99700.09
2022-11-13T14:21:50.756Z,99694.69
2022-11-13T14:24:29.226Z,99685.06
2022-11-13T14:26:57.963Z,99678.50
2022-11-13T14:29:48.906Z,99687.56
2022-11-13T14:32:32.190Z,99652.75
2022-11-13T14:35:05.175Z,99683.13
2022-11-13T14:37:38.030Z,99681.06
2022-11-13T14:40:15.569Z,99686.44
2022-11-13T14:42:48.979Z,99677.47
2022-11-13T14:45:16.118Z,99674.88
2022-11-13T14:47:43.444Z,99676.66
2022-11-13T14:50:37.430Z,99671.66
2022-11-13T14:53:07.031Z,99670.25
2022-11-13T14:55:39.286Z,99673.03
2022-11-13T14:58:49.958Z,99676.88
2022-11-13T15:01:24.876Z,99663.97
2022-11-13T15:03:54.033Z,99677.66
2022-11-13T15:06:26.536Z,99677.91
2022-11-13T15:08:58.424Z,99668.00
2022-11-13T15:11:27.000Z,99681.06
2022-11-13T15:13:54.121Z,99670.19
2022-11-13T15:16:29.335Z,99667.59
2022-11-13T15:19:03.074Z,99661.31
2022-11-13T15:21:30.402Z,99667.59
2022-11-13T15:23:57.985Z,99653.03
2022-11-13T15:26:24.954Z,99662.72
2022-11-13T15:28:51.869Z,99668.81
2022-11-13T15:31:29.596Z,99664.91
2022-11-13T15:33:56.519Z,99676.25
2022-11-13T15:36:23.768Z,99674.31
2022-11-13T15:38:50.678Z,99686.63
2022-11-13T15:41:22.782Z,99684.69
2022-11-13T15:43:53.409Z,99693.06
2022-11-13T15:46:21.902Z,99670.34
2022-11-13T15:48:51.041Z,99651.16
2022-11-13T15:51:18.044Z,99674.84
2022-11-13T15:53:53.356Z,99647.53
2022-11-13T15:56:20.741Z,99642.41
2022-11-13T15:58:47.675Z,99686.22
2022-11-13T16:01:15.998Z,99666.03
2022-11-13T16:03:43.309Z,99686.53
2022-11-13T16:06:17.426Z,99694.41
2022-11-13T16:08:44.954Z,99698.81
2022-11-13T16:11:16.387Z,99697.25
2022-11-13T16:13:44.184Z,99691.06
2022-11-13T16:16:18.950Z,99695.56
2022-11-13T16:18:45.846Z,99700.94
2022-11-13T16:21:14.252Z,99697.69
2022-11-13T16:23:41.253Z,99696.41
2022-11-13T16:26:18.307Z,99697.25
2022-11-13T16:29:07.643Z,99699.78
2022-11-13T16:31:32.159Z,99698.38
2022-11-13T16:33:59.119Z,99701.22
2022-11-13T16:36:27.851Z,99695.00
2022-11-13T16:38:55.867Z,99693.56
2022-11-13T16:41:24.226Z,99695.81
2022-11-13T16:43:51.174Z,99692.16
2022-11-13T16:46:30.437Z,99699.66
2022-11-13T16:48:57.958Z,99703.19
2022-11-13T16:51:25.439Z,99690.47
2022-11-13T16:53:52.408Z,99690.31
2022-11-13T16:56:29.349Z,99698.06
2022-11-13T16:58:57.311Z,99690.59
2022-11-13T17:01:25.160Z,99685.38
2022-11-13T17:03:52.942Z,99685.25
2022-11-13T17:06:25.407Z,99661.97
2022-11-13T17:08:54.668Z,99688.78
2022-11-13T17:11:23.015Z,99694.03
2022-11-13T17:13:54.664Z,99701.78
2022-11-13T17:16:22.687Z,99695.28
2022-11-13T17:18:50.666Z,99686.22
2022-11-13T17:21:17.662Z,99672.72
2022-11-13T17:23:44.764Z,99687.94
2022-11-13T17:26:12.021Z,99694.16
2022-11-13T17:28:39.224Z,99673.97
2022-11-13T17:31:10.464Z,99687.81
2022-11-13T17:33:37.811Z,99685.69
2022-11-13T17:36:04.985Z,99683.00
2022-11-13T17:38:31.916Z,99675.53
2022-11-13T17:41:08.898Z,99684.28
2022-11-13T17:43:37.161Z,99686.53
2022-11-13T17:46:10.712Z,99679.91
2022-11-13T17:48:37.967Z,99688.50
2022-11-13T17:51:09.826Z,99687.22
2022-11-13T17:53:36.723Z,99678.63
2022-11-13T17:56:08.242Z,99681.44
2022-11-13T17:59:06.243Z,99678.06
2022-11-13T18:01:34.003Z,99672.97
2022-11-13T18:04:01.003Z,99678.75
2022-11-13T18:06:27.976Z,99674.53
2022-11-13T18:08:55.089Z,99672.72
2022-11-13T18:11:24.771Z,99662.22
2022-11-13T18:13:53.013Z,99664.78
2022-11-13T18:16:34.695Z,99662.41
2022-11-13T18:19:03.929Z,99661.69
2022-11-13T18:21:33.039Z,99665.63
2022-11-13T18:24:03.457Z,99656.84
2022-11-13T18:26:31.979Z,99662.50
2022-11-13T18:28:59.954Z,99665.59
2022-11-13T18:31:27.657Z,99658.41
2022-11-13T18:33:54.702Z,99671.22
2022-11-13T18:36:21.701Z,99667.56
2022-11-13T18:38:48.682Z,99664.47
2022-11-13T18:41:18.858Z,99668.84
2022-11-13T18:43:47.506Z,99668.97
2022-11-13T18:46:16.123Z,99657.41
2022-11-13T18:48:44.483Z,99671.66
2022-11-13T18:51:16.922Z,99664.34
2022-11-13T18:53:45.858Z,99639.25
2022-11-13T18:56:17.890Z,99668.00
2022-11-13T18:58:46.818Z,99677.09
2022-11-13T19:01:21.546Z,99672.72
2022-11-13T19:04:15.971Z,99675.38
2022-11-13T19:06:38.072Z,99676.91
2022-11-13T19:09:08.363Z,99667.59
2022-11-13T19:11:35.258Z,99664.47
2022-11-13T19:14:02.303Z,99669.47
2022-11-13T19:16:33.580Z,99673.00
2022-11-13T19:19:03.801Z,99673.00
2022-11-13T19:21:32.867Z,99674.97
2022-11-13T19:24:02.686Z,99665.22
2022-11-13T19:26:29.676Z,99667.91
2022-11-13T19:28:56.628Z,99665.81
2022-11-13T19:31:26.518Z,99665.38
2022-11-13T19:33:58.023Z,99661.25
2022-11-13T19:36:26.184Z,99664.78
2022-11-13T19:38:53.261Z,99664.81
2022-11-13T19:41:21.097Z,99661.41
2022-11-13T19:43:49.117Z,99668.75
2022-11-13T19:46:17.687Z,99685.09
2022-11-13T19:48:45.717Z,99669.63
2022-11-13T19:51:18.409Z,99671.00
2022-11-13T19:53:50.211Z,99676.06
2022-11-13T19:56:20.936Z,99669.84
2022-11-13T19:58:49.651Z,99662.53
2022-11-13T20:01:22.902Z,99674.38
2022-11-13T20:03:55.159Z,99666.72
2022-11-13T20:06:24.101Z,99667.56
2022-11-13T20:08:51.766Z,99643.88
2022-11-13T20:11:19.321Z,99658.69
2022-11-13T20:13:46.624Z,99662.53
2022-11-13T20:16:23.072Z,99651.50
2022-11-13T20:18:50.855Z,99661.53
2022-11-13T20:21:27.830Z,99655.63
2022-11-13T20:23:58.108Z,99654.91
2022-11-13T20:26:25.368Z,99648.28
2022-11-13T20:28:52.383Z,99633.78
2022-11-13T20:31:22.473Z,99642.38
2022-11-13T20:33:55.129Z,99645.59
2022-11-13T20:36:23.499Z,99642.22
2022-11-13T20:38:55.065Z,99650.09
2022-11-13T20:41:22.560Z,99651.50
2022-11-13T20:43:49.792Z,99634.03
2022-11-13T20:46:18.702Z,99644.75
2022-11-13T20:48:50.060Z,99610.75
2022-11-13T20:51:20.770Z,99621.06
2022-11-13T20:53:48.468Z,99639.41
2022-11-13T20:56:17.451Z,99634.19
2022-11-13T20:58:55.230Z,99649.00
2022-11-13T21:01:27.291Z,99641.53
2022-11-13T21:03:54.417Z,99653.25
2022-11-13T21:06:23.419Z,99644.75
2022-11-13T21:08:53.809Z,99652.09
2022-11-13T21:11:25.795Z,99649.00
2022-11-13T21:13:55.501Z,99645.47
2022-11-13T21:16:23.278Z,99650.91
2022-11-13T21:18:51.039Z,99653.47
2022-11-13T21:21:22.357Z,99653.03
2022-11-13T21:23:49.369Z,99653.75
2022-11-13T21:26:17.593Z,99659.09
2022-11-13T21:28:45.528Z,99650.34
2022-11-13T21:31:17.980Z,99650.38
2022-11-13T21:33:46.355Z,99648.41
2022-11-13T21:36:15.446Z,99650.41
2022-11-13T21:38:45.495Z,99650.00
2022-11-13T21:41:25.008Z,99619.09
2022-11-13T21:44:00.731Z,99639.13
2022-11-13T21:46:30.337Z,99637.00
2022-11-13T21:49:15.188Z,99626.00
2022-11-13T21:51:43.435Z,99632.78
2022-11-13T21:54:10.707Z,99621.34
2022-11-13T21:56:39.010Z,99633.19
2022-11-13T21:59:07.141Z,99621.78
2022-11-13T22:01:38.403Z,99638.00
2022-11-13T22:04:06.598Z,99629.25
2022-11-13T22:06:39.954Z,99625.56
2022-11-13T22:09:15.630Z,99640.34
2022-11-13T22:11:42.704Z,99637.53
2022-11-13T22:14:10.601Z,99637.41
2022-11-13T22:16:41.265Z,99625.84
2022-11-13T22:19:12.415Z,99625.16
2022-11-13T22:21:40.283Z,99631.91
2022-11-13T22:24:08.056Z,99612.91
2022-11-13T22:26:40.549Z,99637.44
2022-11-13T22:29:08.977Z,99630.94
2022-11-13T22:31:36.931Z,99628.41
2022-11-13T22:34:04.538Z,99629.13
2022-11-13T22:36:34.551Z,99625.16
2022-11-13T22:39:02.076Z,99623.19
2022-11-13T22:41:31.478Z,99620.53
2022-11-13T22:44:04.013Z,99617.13
2022-11-13T22:46:33.786Z,99620.94
2022-11-13T22:49:02.406Z,99619.38
2022-11-13T22:51:32.504Z,99619.50
2022-11-13T22:54:02.488Z,99623.75
2022-11-13T22:56:32.917Z,99625.47
2022-11-13T22:59:01.977Z,99609.78
2022-11-13T23:01:31.707Z,99612.75
2022-11-13T23:04:01.526Z,99606.41
2022-11-13T23:06:33.642Z,99598.47
2022-11-13T23:09:01.469Z,99602.56
2022-11-13T23:11:33.180Z,99599.63
2022-11-13T23:14:02.506Z,99596.66
2022-11-13T23:16:30.945Z,99588.47
2022-11-13T23:18:59.518Z,99587.47
2022-11-13T23:21:28.277Z,99578.44
2022-11-13T23:23:56.536Z,99583.81
2022-11-13T23:26:24.571Z,99574.91
2022-11-13T23:28:51.623Z,99574.06
2022-11-13T23:31:18.930Z,99570.69
2022-11-13T23:33:45.836Z,99559.25
2022-11-13T23:36:14.756Z,99566.31
2022-11-13T23:38:42.363Z,99566.59
2022-11-13T23:41:10.622Z,99560.69
2022-11-13T23:44:07.234Z,99558.44
2022-11-13T23:46:24.713Z,99552.38
2022-11-13T23:48:52.724Z,99557.59
2022-11-13T23:51:21.348Z,99557.59
2022-11-13T23:53:48.314Z,99555.59
2022-11-13T23:56:15.802Z,99562.53
2022-11-13T23:58:42.997Z,99556.19
